createdAt,value
2019-04-23T00:00:07.300Z,99281.38
2019-04-23T00:03:12.799Z,99286.85
2019-04-23T00:05:48.173Z,99281.31
2019-04-23T00:08:41.810Z,99274.67
2019-04-23T00:11:25.882Z,99274.50
2019-04-23T00:14:12.378Z,99258.48
2019-04-23T00:16:57.744Z,99258.92
2019-04-23T00:19:48.552Z,99253.13
2019-04-23T00:26:02.619Z,99253.23
2019-04-23T00:28:50.490Z,99241.48
2019-04-23T00:31:44.647Z,99235.80
2019-04-23T00:34:30.820Z,99239.73
2019-04-23T00:37:18.788Z,99236.38
2019-04-23T00:39:57.807Z,99241.67
2019-04-23T00:42:47.918Z,99230.59
2019-04-23T00:45:41.831Z,99227.81
2019-04-23T00:51:11.906Z,99227.02
2019-04-23T00:54:00.230Z,99226.03
2019-04-23T00:59:41.135Z,99219.42
2019-04-23T01:02:29.705Z,99219.47
2019-04-23T01:05:18.701Z,99216.78
2019-04-23T01:07:58.539Z,99213.11
2019-04-23T01:10:56.547Z,99214.19
2019-04-23T01:13:45.661Z,99202.48
2019-04-23T01:16:28.309Z,99202.66
2019-04-23T01:19:32.023Z,99203.96
2019-04-23T01:21:55.731Z,99197.20
2019-04-23T01:25:11.119Z,99197.39
2019-04-23T01:28:13.872Z,99200.48
2019-04-23T05:03:52.787Z,99106.12
2019-04-23T05:12:24.187Z,99098.33
2019-04-23T05:21:16.025Z,99095.61
2019-04-23T05:24:00.877Z,99088.45
2019-04-23T05:26:39.228Z,99090.22
2019-04-23T05:29:41.435Z,99091.34
2019-04-23T05:32:29.123Z,99085.58
2019-04-23T05:35:42.813Z,99083.94
2019-04-23T05:43:46.780Z,99083.27
2019-04-23T05:46:39.466Z,99083.86
2019-04-23T05:49:41.342Z,99079.32
2019-04-23T05:52:12.052Z,99076.17
2019-04-23T05:57:52.455Z,99066.55
2019-04-23T06:00:54.547Z,99064.92
2019-04-23T06:03:41.824Z,99064.85
2019-04-23T06:06:29.421Z,99057.72
2019-04-23T06:09:14.103Z,99062.83
2019-04-23T06:12:00.050Z,99062.72
2019-04-23T06:14:54.555Z,99066.56
2019-04-23T06:17:55.842Z,99060.14
2019-04-23T06:20:28.452Z,99061.92
2019-04-23T06:23:16.427Z,99060.59
2019-04-23T06:26:20.179Z,99060.95
2019-04-23T06:28:56.256Z,99054.86
2019-04-23T06:31:40.871Z,99045.77
2019-04-23T06:34:31.129Z,99042.98
2019-04-23T06:37:09.608Z,99039.38
2019-04-23T06:43:13.172Z,99038.66
2019-04-23T06:46:01.348Z,99045.55
2019-04-23T06:48:47.131Z,99045.79
2019-04-23T06:51:43.790Z,99043.72
2019-04-23T06:54:27.900Z,99029.74
2019-04-23T06:57:19.214Z,99029.11
2019-04-23T07:00:04.271Z,99027.58
2019-04-23T07:02:49.494Z,99024.97
2019-04-23T07:06:13.888Z,99024.27
2019-04-23T07:09:05.202Z,99011.42
2019-04-23T07:11:34.084Z,99011.27
2019-04-23T07:14:28.782Z,99011.95
2019-04-23T07:19:58.098Z,99002.80
2019-04-23T07:22:49.901Z,99000.92
2019-04-23T07:25:32.803Z,98992.61
2019-04-23T07:28:27.503Z,98990.38
2019-04-23T07:31:14.083Z,98990.17
2019-04-23T07:34:06.283Z,98974.88
2019-04-23T07:37:00.163Z,98983.38
2019-04-23T07:40:26.339Z,98976.04
2019-04-23T07:43:02.952Z,98969.60
2019-04-23T07:46:02.250Z,98972.34
2019-04-23T07:48:43.805Z,98967.84
2019-04-23T07:51:37.397Z,98965.18
2019-04-23T07:54:29.028Z,98960.88
2019-04-23T07:57:17.186Z,98957.67
2019-04-23T08:00:00.792Z,98948.05
2019-04-23T08:02:46.110Z,98943.63
2019-04-23T08:05:36.105Z,98941.39
2019-04-23T08:08:18.211Z,98940.67
2019-04-23T08:16:42.550Z,98936.25
2019-04-23T08:19:51.207Z,98931.27
2019-04-23T08:22:33.441Z,98922.67
2019-04-23T08:25:37.195Z,98924.26
2019-04-23T08:28:35.411Z,98917.28
2019-04-23T08:31:18.169Z,98925.75
2019-04-23T08:34:15.009Z,98916.86
2019-04-23T08:36:48.622Z,98909.88
2019-04-23T08:39:38.324Z,98901.50
2019-04-23T08:45:28.198Z,98895.13
2019-04-23T08:48:34.616Z,98891.09
2019-04-23T08:53:58.956Z,98888.34
2019-04-23T08:56:50.119Z,98900.03
2019-04-23T09:03:02.816Z,98894.34
2019-04-23T09:05:32.548Z,98876.70
2019-04-23T09:08:11.765Z,98879.23
2019-04-23T09:10:56.819Z,98859.30
2019-04-23T09:16:28.633Z,98854.19
2019-04-23T09:19:14.648Z,98858.59
2019-04-23T09:22:08.690Z,98867.58
2019-04-23T09:24:48.766Z,98857.64
2019-04-23T09:27:39.695Z,98838.83
2019-04-23T09:30:26.969Z,98851.06
2019-04-23T09:33:46.399Z,98846.59
2019-04-23T09:39:34.759Z,98825.37
2019-04-23T09:45:41.088Z,98832.02
2019-04-23T09:48:29.878Z,98839.94
2019-04-23T09:51:20.990Z,98845.11
2019-04-23T09:54:12.838Z,98837.16
2019-04-23T09:59:47.279Z,98834.80
2019-04-23T10:02:21.576Z,98824.87
2019-04-23T10:05:02.949Z,98814.05
2019-04-23T10:07:46.932Z,98802.08
2019-04-23T10:10:23.223Z,98812.10
2019-04-23T10:13:09.363Z,98801.07
2019-04-23T10:15:55.966Z,98806.86
2019-04-23T10:18:41.571Z,98796.32
2019-04-23T10:21:29.095Z,98787.79
2019-04-23T10:24:15.244Z,98780.37
2019-04-23T10:27:01.973Z,98780.47
2019-04-23T10:29:48.086Z,98767.89
2019-04-23T10:32:35.670Z,98779.23
2019-04-23T10:35:33.865Z,98767.84
2019-04-23T10:38:14.060Z,98767.72
2019-04-23T10:40:58.076Z,98773.97
2019-04-23T10:43:50.053Z,98767.15
2019-04-23T10:47:11.502Z,98760.25
2019-04-23T10:50:24.770Z,98746.38
2019-04-23T10:52:49.214Z,98751.47
2019-04-23T10:55:51.173Z,98745.72
2019-04-23T10:58:33.872Z,98743.31
2019-04-23T11:01:24.425Z,98745.73
2019-04-23T11:09:23.071Z,98725.27
2019-04-23T11:12:03.827Z,98722.84
2019-04-23T11:14:53.125Z,98717.27
2019-04-23T11:17:38.478Z,98706.55
2019-04-23T11:22:58.995Z,98725.36
2019-04-23T11:26:01.355Z,98716.50
2019-04-23T11:31:36.262Z,98723.70
2019-04-23T11:34:43.966Z,98728.47
2019-04-23T11:37:14.487Z,98722.03
2019-04-23T11:40:01.736Z,98710.01
2019-04-23T11:42:52.924Z,98713.04
2019-04-23T12:02:49.765Z,98718.42
2019-04-23T12:06:09.600Z,98720.30
2019-04-23T12:09:26.239Z,98720.59
2019-04-23T12:12:08.100Z,98715.28
2019-04-23T12:15:09.685Z,98714.70
2019-04-23T12:17:50.795Z,98721.03
2019-04-23T12:23:32.002Z,98732.44
2019-04-23T12:26:20.912Z,98707.41
2019-04-23T12:32:27.736Z,98702.29
2019-04-23T12:35:03.732Z,98711.20
2019-04-23T12:40:38.274Z,98707.27
2019-04-23T12:43:23.680Z,98705.94
2019-04-23T12:46:17.700Z,98707.27
2019-04-23T12:51:53.557Z,98709.95
2019-04-23T12:55:02.500Z,98702.04
2019-04-23T12:57:35.740Z,98707.08
2019-04-23T13:00:20.919Z,98714.72
2019-04-23T13:03:25.605Z,98703.22
2019-04-23T13:05:50.572Z,98702.88
2019-04-23T13:08:46.184Z,98697.45
2019-04-23T13:11:34.454Z,98699.66
2019-04-23T13:14:25.227Z,98693.05
2019-04-23T13:28:30.976Z,98704.50
2019-04-23T13:34:07.127Z,98685.78
2019-04-23T13:36:53.884Z,98692.11
2019-04-23T13:39:43.945Z,98683.98
2019-04-23T13:42:50.618Z,98685.65
2019-04-23T13:45:45.991Z,98668.78
2019-04-23T13:48:07.007Z,98672.63
2019-04-23T13:56:47.917Z,98644.63
2019-04-23T13:59:21.768Z,98663.91
2019-04-23T14:02:28.273Z,98648.41
2019-04-23T14:05:22.034Z,98647.78
2019-04-23T14:08:11.839Z,98641.35
2019-04-23T14:19:06.845Z,98638.31
2019-04-23T14:22:21.074Z,98643.20
2019-04-23T14:25:02.045Z,98635.69
2019-04-23T14:27:49.620Z,98631.67
2019-04-23T14:30:38.904Z,98624.66
2019-04-23T14:33:26.698Z,98627.03
2019-04-23T14:36:14.142Z,98625.00
2019-04-23T14:39:00.163Z,98614.53
2019-04-23T14:42:03.525Z,98618.98
2019-04-23T14:44:41.956Z,98609.80
2019-04-23T14:47:27.884Z,98613.36
2019-04-23T14:53:18.453Z,98606.94
2019-04-23T14:58:50.713Z,98611.36
2019-04-23T15:04:19.283Z,98610.52
2019-04-23T15:07:10.945Z,98598.69
2019-04-23T15:10:02.533Z,98584.44
2019-04-23T15:12:45.724Z,98589.00
2019-04-23T15:15:24.009Z,98579.59
2019-04-23T15:18:44.722Z,98580.03
2019-04-23T15:29:31.768Z,98576.42
2019-04-23T15:32:43.848Z,98576.34
2019-04-23T15:41:10.185Z,98572.65
2019-04-23T15:43:51.138Z,98573.15
2019-04-23T15:49:26.551Z,98567.11
2019-04-23T15:52:14.282Z,98573.31
2019-04-23T15:55:03.246Z,98565.84
2019-04-23T16:00:38.338Z,98566.48
2019-04-23T16:02:55.156Z,98559.10
2019-04-23T16:05:41.250Z,98556.85
2019-04-23T16:11:43.846Z,98555.95
2019-04-23T16:14:56.680Z,98555.37
2019-04-23T16:17:37.534Z,98558.48
2019-04-23T16:20:37.456Z,98555.12
2019-04-23T16:23:22.789Z,98562.54
2019-04-23T16:26:14.492Z,98550.17
2019-04-23T16:29:15.742Z,98554.30
2019-04-23T16:34:52.696Z,98552.33
2019-04-23T16:37:50.007Z,98555.26
2019-04-23T16:40:35.074Z,98545.92
2019-04-23T16:43:12.834Z,98554.17
2019-04-23T16:46:09.780Z,98558.89
2019-04-23T16:51:34.345Z,98557.65
2019-04-23T16:54:31.264Z,98550.65
2019-04-23T16:57:37.467Z,98546.70
2019-04-23T17:00:13.206Z,98547.30
2019-04-23T17:03:02.363Z,98544.19
2019-04-23T17:05:39.314Z,98540.16
2019-04-23T17:08:53.959Z,98551.96
2019-04-23T17:16:42.666Z,98545.89
2019-04-23T17:19:36.928Z,98554.13
2019-04-23T17:22:24.549Z,98545.55
2019-04-23T17:28:17.041Z,98541.70
2019-04-23T17:31:03.480Z,98542.30
2019-04-23T17:37:03.250Z,98543.13
2019-04-23T17:40:06.942Z,98545.30
2019-04-23T17:42:46.796Z,98549.56
2019-04-23T17:45:38.397Z,98546.93
2019-04-23T17:48:30.289Z,98549.34
2019-04-23T17:51:19.781Z,98547.41
2019-04-23T17:57:11.789Z,98549.61
2019-04-23T18:03:02.892Z,98551.84
2019-04-23T18:05:23.615Z,98550.52
2019-04-23T18:08:19.439Z,98546.63
2019-04-23T18:11:12.985Z,98555.09
2019-04-23T18:13:56.982Z,98559.94
2019-04-23T18:16:51.928Z,98559.32
2019-04-23T18:19:29.863Z,98561.84
2019-04-23T18:22:22.176Z,98561.94
2019-04-23T18:28:01.781Z,98560.23
2019-04-23T18:31:10.799Z,98561.59
2019-04-23T18:36:45.906Z,98561.32
2019-04-23T18:39:42.133Z,98562.11
2019-04-23T18:45:20.740Z,98564.94
2019-04-23T18:48:33.051Z,98565.20
2019-04-23T18:51:03.824Z,98565.67
2019-04-23T18:53:52.677Z,98572.04
2019-04-23T18:57:00.070Z,98572.98
2019-04-23T18:59:40.769Z,98571.35
2019-04-23T19:02:56.662Z,98575.17
2019-04-23T19:06:01.443Z,98576.32
2019-04-23T19:09:01.371Z,98578.75
2019-04-23T19:12:09.265Z,98575.09
2019-04-23T19:14:51.949Z,98576.00
2019-04-23T19:20:26.413Z,98575.84
2019-04-23T19:23:16.045Z,98573.69
2019-04-23T19:25:50.198Z,98577.72
2019-04-23T19:28:58.043Z,98571.47
2019-04-23T19:31:50.114Z,98574.59
2019-04-23T19:34:39.360Z,98577.47
2019-04-23T19:37:24.428Z,98571.43
2019-04-23T19:40:04.415Z,98573.44
2019-04-23T19:43:01.363Z,98565.59
2019-04-23T19:48:25.331Z,98565.16
2019-04-23T19:51:16.768Z,98571.69
2019-04-23T19:54:09.546Z,98567.14
2019-04-23T19:57:00.070Z,98566.26
2019-04-23T20:05:17.435Z,98567.20
2019-04-23T20:08:27.617Z,98569.56
2019-04-23T20:11:01.039Z,98570.23
2019-04-23T20:16:40.001Z,98569.48
2019-04-23T20:19:20.740Z,98570.60
2019-04-23T20:22:06.207Z,98567.47
2019-04-23T20:27:48.572Z,98560.66
2019-04-23T20:31:05.282Z,98569.94
2019-04-23T20:34:01.832Z,98568.87
2019-04-23T20:36:45.196Z,98570.18
2019-04-23T20:42:12.323Z,98560.33
2019-04-23T20:45:00.714Z,98567.05
2019-04-23T20:50:34.163Z,98559.77
2019-04-23T20:53:28.237Z,98557.91
2019-04-23T20:56:17.909Z,98560.44
2019-04-23T21:02:05.819Z,98563.56
2019-04-23T21:04:53.071Z,98559.27
2019-04-23T21:07:52.583Z,98558.25
2019-04-23T21:13:15.697Z,98556.48
2019-04-23T21:15:59.686Z,98564.42
2019-04-23T21:18:44.250Z,98560.63
2019-04-23T21:21:33.569Z,98560.81
2019-04-23T21:24:14.685Z,98558.58
2019-04-23T21:27:23.653Z,98561.37
2019-04-23T21:33:00.878Z,98556.00
2019-04-23T21:36:12.661Z,98552.42
2019-04-23T21:44:41.970Z,98554.09
2019-04-23T21:47:39.448Z,98546.86
2019-04-23T21:52:58.235Z,98543.30
2019-04-23T21:56:07.285Z,98546.01
2019-04-23T22:07:27.419Z,98552.27
2019-04-23T22:09:57.725Z,98552.19
2019-04-23T22:12:54.717Z,98542.53
2019-04-23T22:15:44.905Z,98542.75
2019-04-23T22:18:27.703Z,98541.45
2019-04-23T22:21:15.946Z,98540.50
2019-04-23T22:24:07.102Z,98541.34
2019-04-23T22:26:38.005Z,98535.84
2019-04-23T22:29:37.961Z,98535.66
2019-04-23T22:32:20.145Z,98540.13
2019-04-23T22:35:07.629Z,98537.89
2019-04-23T22:38:11.223Z,98543.48
2019-04-23T22:40:49.703Z,98541.61
2019-04-23T22:43:43.278Z,98535.73
2019-04-23T22:46:28.014Z,98531.91
2019-04-23T22:49:25.205Z,98534.62
2019-04-23T22:52:09.873Z,98535.45
2019-04-23T22:54:58.972Z,98541.90
2019-04-23T22:57:56.384Z,98535.84
2019-04-23T23:03:29.519Z,98545.70
2019-04-23T23:11:54.719Z,98532.84
2019-04-23T23:14:38.501Z,98536.58
2019-04-23T23:17:33.427Z,98536.58
2019-04-23T23:25:49.252Z,98539.09
2019-04-23T23:28:42.524Z,98531.27
2019-04-23T23:31:42.214Z,98540.86
2019-04-23T23:34:15.999Z,98542.83
2019-04-23T23:40:00.238Z,98542.17
2019-04-23T23:42:45.910Z,98542.27
2019-04-23T23:45:31.428Z,98546.48
2019-04-23T23:48:13.099Z,98544.98
2019-04-23T23:51:11.440Z,98539.84
2019-04-23T23:56:50.081Z,98551.48
2019-04-23T23:59:26.824Z,98551.86
